createdAt,value
2023-01-27T00:01:34.047Z,5.00
2023-01-27T00:04:02.106Z,4.70
2023-01-27T00:06:30.094Z,5.13
2023-01-27T00:08:58.089Z,4.27
2023-01-27T00:11:39.811Z,4.90
2023-01-27T00:14:09.275Z,4.80
2023-01-27T00:16:37.252Z,5.77
2023-01-27T00:19:05.196Z,4.33
2023-01-27T00:21:50.486Z,4.67
2023-01-27T00:24:36.041Z,4.37
2023-01-27T00:27:04.254Z,4.27
2023-01-27T00:29:33.634Z,4.67
2023-01-27T00:32:19.334Z,4.73
2023-01-27T00:34:47.463Z,4.63
2023-01-27T00:37:15.618Z,4.93
2023-01-27T00:39:43.673Z,5.37
2023-01-27T00:42:11.823Z,4.50
2023-01-27T00:45:02.331Z,5.00
2023-01-27T00:47:30.296Z,5.07
2023-01-27T00:49:58.326Z,5.73
2023-01-27T00:52:27.052Z,4.67
2023-01-27T00:54:55.019Z,4.97
2023-01-27T00:57:23.034Z,4.93
2023-01-27T00:59:52.447Z,4.67
2023-01-27T01:02:20.526Z,6.90
2023-01-27T01:04:48.513Z,5.77
2023-01-27T01:07:16.514Z,4.90
2023-01-27T01:09:44.560Z,5.63
2023-01-27T01:12:12.574Z,4.70
2023-01-27T01:14:40.540Z,5.37
2023-01-27T01:17:10.029Z,5.53
2023-01-27T01:19:38.037Z,5.60
2023-01-27T01:22:06.039Z,5.90
2023-01-27T01:24:34.051Z,5.87
2023-01-27T01:27:02.039Z,5.90
2023-01-27T01:29:30.172Z,5.10
2023-01-27T01:31:58.197Z,5.30
2023-01-27T01:34:27.786Z,5.70
2023-01-27T01:36:55.735Z,5.80
2023-01-27T01:39:23.743Z,5.47
2023-01-27T01:41:51.752Z,5.27
2023-01-27T01:44:23.591Z,5.67
2023-01-27T01:46:51.772Z,5.47
2023-01-27T01:49:21.117Z,5.13
2023-01-27T01:51:53.232Z,5.50
2023-01-27T01:54:22.937Z,5.57
2023-01-27T01:56:54.803Z,6.23
2023-01-27T01:59:25.145Z,5.47
2023-01-27T02:01:54.309Z,5.00
2023-01-27T02:04:25.437Z,6.03
2023-01-27T02:06:56.926Z,6.10
2023-01-27T02:09:25.321Z,5.37
2023-01-27T02:11:53.424Z,5.20
2023-01-27T02:14:21.890Z,6.03
2023-01-27T02:16:49.875Z,5.10
2023-01-27T02:19:22.549Z,6.00
2023-01-27T02:21:52.052Z,5.00
2023-01-27T02:24:21.496Z,5.60
2023-01-27T02:26:51.561Z,5.37
2023-01-27T02:29:19.565Z,5.90
2023-01-27T02:31:47.671Z,6.13
2023-01-27T02:34:18.070Z,5.37
2023-01-27T02:36:48.306Z,5.80
2023-01-27T02:39:16.916Z,5.20
2023-01-27T02:41:46.315Z,5.30
2023-01-27T02:44:15.783Z,5.90
2023-01-27T02:46:44.101Z,6.00
2023-01-27T02:49:12.049Z,5.57
2023-01-27T02:51:40.725Z,5.70
2023-01-27T02:54:08.704Z,5.20
2023-01-27T02:56:39.739Z,5.67
2023-01-27T02:59:07.725Z,6.43
2023-01-27T03:01:37.200Z,5.20
2023-01-27T03:04:06.182Z,5.90
2023-01-27T03:06:34.216Z,4.73
2023-01-27T03:09:02.227Z,5.93
2023-01-27T03:11:47.613Z,5.93
2023-01-27T03:14:15.594Z,5.20
2023-01-27T03:17:02.427Z,6.10
2023-01-27T03:19:30.383Z,5.97
2023-01-27T03:22:03.367Z,5.97
2023-01-27T03:24:31.404Z,5.67
2023-01-27T03:26:59.452Z,6.37
2023-01-27T03:29:44.755Z,6.53
2023-01-27T03:32:14.285Z,5.90
2023-01-27T03:34:42.228Z,5.93
2023-01-27T03:37:27.820Z,6.20
2023-01-27T03:40:16.043Z,5.87
2023-01-27T03:43:01.606Z,5.70
2023-01-27T03:45:47.192Z,5.90
2023-01-27T03:48:18.783Z,5.67
2023-01-27T03:50:53.643Z,6.37
2023-01-27T03:53:21.679Z,6.03
2023-01-27T03:55:49.765Z,5.30
2023-01-27T03:58:20.076Z,6.30
2023-01-27T04:00:48.508Z,5.93
2023-01-27T04:03:35.248Z,6.73
2023-01-27T04:06:21.833Z,6.97
2023-01-27T04:08:49.819Z,6.23
2023-01-27T04:11:34.356Z,6.67
2023-01-27T04:14:03.219Z,5.87
2023-01-27T04:16:31.246Z,6.80
2023-01-27T04:19:00.701Z,6.30
2023-01-27T04:21:28.657Z,6.30
2023-01-27T04:23:56.924Z,5.90
2023-01-27T04:26:24.995Z,6.23
2023-01-27T04:28:52.963Z,5.93
2023-01-27T04:31:20.916Z,6.50
2023-01-27T04:33:48.855Z,5.33
2023-01-27T04:36:18.232Z,6.23
2023-01-27T04:38:46.372Z,6.50
2023-01-27T04:41:14.719Z,5.83
2023-01-27T04:43:42.670Z,6.10
2023-01-27T04:46:10.650Z,5.50
2023-01-27T04:48:38.651Z,6.67
2023-01-27T04:51:06.839Z,6.30
2023-01-27T04:53:36.268Z,5.63
2023-01-27T04:56:05.768Z,6.43
2023-01-27T04:58:33.783Z,6.60
2023-01-27T05:01:01.728Z,6.40
2023-01-27T05:03:29.897Z,6.37
2023-01-27T05:05:57.821Z,5.33
2023-01-27T05:08:25.798Z,6.27
2023-01-27T05:10:55.159Z,6.23
2023-01-27T05:13:25.906Z,5.40
2023-01-27T05:15:53.857Z,5.53
2023-01-27T05:18:21.825Z,6.13
2023-01-27T05:20:51.520Z,6.47
2023-01-27T05:23:38.189Z,6.07
2023-01-27T05:26:08.867Z,6.07
2023-01-27T05:28:37.660Z,5.73
2023-01-27T05:31:06.490Z,6.33
2023-01-27T05:33:34.781Z,5.87
2023-01-27T05:36:03.661Z,5.13
2023-01-27T05:38:31.785Z,5.93
2023-01-27T05:41:01.023Z,5.60
2023-01-27T05:43:31.080Z,5.80
2023-01-27T05:46:06.008Z,5.70
2023-01-27T05:48:34.892Z,6.07
2023-01-27T05:51:02.912Z,5.83
2023-01-27T05:53:31.078Z,7.73
2023-01-27T05:55:59.132Z,5.70
2023-01-27T05:58:27.140Z,6.23
2023-01-27T06:00:56.577Z,5.67
2023-01-27T06:03:24.731Z,5.23
2023-01-27T06:05:56.354Z,5.63
2023-01-27T06:08:24.702Z,5.97
2023-01-27T06:10:53.214Z,5.80
2023-01-27T06:13:23.677Z,5.73
2023-01-27T06:15:51.927Z,6.43
2023-01-27T06:18:21.655Z,5.10
2023-01-27T06:20:49.617Z,5.03
2023-01-27T06:23:18.211Z,6.27
2023-01-27T06:25:46.695Z,5.60
2023-01-27T06:28:28.106Z,6.30
2023-01-27T06:30:57.374Z,5.63
2023-01-27T06:33:26.726Z,6.43
2023-01-27T06:36:01.621Z,5.97
2023-01-27T06:38:29.570Z,5.87
2023-01-27T06:40:57.611Z,5.87
2023-01-27T06:43:25.592Z,5.83
2023-01-27T06:45:53.977Z,5.23
2023-01-27T06:48:22.064Z,5.10
2023-01-27T06:50:51.544Z,5.00
2023-01-27T06:53:19.482Z,6.20
2023-01-27T06:55:47.443Z,5.53
2023-01-27T06:58:16.165Z,6.23
2023-01-27T07:00:44.643Z,6.40
2023-01-27T07:05:42.422Z,5.83
2023-01-27T07:08:11.878Z,5.60
2023-01-27T07:10:40.392Z,5.37
2023-01-27T07:13:08.617Z,5.40
2023-01-27T07:15:36.922Z,5.07
2023-01-27T07:18:04.995Z,5.50
2023-01-27T07:20:33.727Z,5.90
2023-01-27T07:23:02.142Z,5.60
2023-01-27T07:25:31.975Z,5.83
2023-01-27T07:28:00.138Z,5.53
2023-01-27T07:30:28.735Z,5.63
2023-01-27T07:32:56.847Z,4.87
2023-01-27T07:35:24.934Z,5.97
2023-01-27T07:37:52.891Z,4.97
2023-01-27T07:40:21.161Z,4.93
2023-01-27T07:42:50.594Z,7.37
2023-01-27T07:45:18.707Z,6.10
2023-01-27T07:47:46.680Z,6.03
2023-01-27T07:50:15.049Z,6.63
2023-01-27T07:52:43.338Z,7.03
2023-01-27T07:55:12.245Z,5.53
2023-01-27T07:57:40.403Z,5.70
2023-01-27T08:00:15.713Z,6.33
2023-01-27T08:02:45.636Z,6.13
2023-01-27T08:05:25.500Z,6.07
2023-01-27T08:07:53.772Z,5.43
2023-01-27T08:10:22.048Z,5.93
2023-01-27T08:12:50.435Z,5.63
2023-01-27T08:15:19.976Z,5.60
2023-01-27T08:17:54.351Z,6.33
2023-01-27T08:20:22.329Z,5.67
2023-01-27T08:22:50.282Z,6.37
2023-01-27T08:25:18.364Z,6.03
2023-01-27T08:27:46.427Z,5.97
2023-01-27T08:30:15.025Z,5.77
2023-01-27T08:32:44.587Z,5.90
2023-01-27T08:35:12.600Z,7.03
2023-01-27T08:37:40.649Z,5.73
2023-01-27T08:40:09.214Z,5.20
2023-01-27T08:42:37.176Z,5.53
2023-01-27T08:45:05.444Z,5.47
2023-01-27T08:47:33.410Z,5.83
2023-01-27T08:50:02.846Z,6.90
2023-01-27T08:52:31.819Z,5.60
2023-01-27T08:54:59.819Z,5.63
2023-01-27T08:57:27.740Z,5.20
2023-01-27T08:59:55.733Z,5.97
2023-01-27T09:02:24.531Z,5.57
2023-01-27T09:04:52.679Z,6.27
2023-01-27T09:07:22.106Z,6.17
2023-01-27T09:09:54.130Z,5.97
2023-01-27T09:12:26.225Z,5.30
2023-01-27T09:14:54.341Z,5.20
2023-01-27T09:17:22.319Z,5.27
2023-01-27T09:19:50.404Z,6.47
2023-01-27T09:22:18.594Z,4.90
2023-01-27T09:24:48.019Z,5.47
2023-01-27T09:27:16.006Z,5.17
2023-01-27T09:29:44.398Z,5.87
2023-01-27T09:32:13.057Z,6.00
2023-01-27T09:34:41.133Z,5.00
2023-01-27T09:37:11.134Z,5.47
2023-01-27T09:39:41.476Z,5.50
2023-01-27T09:42:18.735Z,5.77
2023-01-27T09:45:01.079Z,6.07
2023-01-27T09:47:34.723Z,5.97
2023-01-27T09:50:20.337Z,7.40
2023-01-27T09:52:54.571Z,5.37
2023-01-27T09:55:27.050Z,5.50
2023-01-27T09:58:00.137Z,5.20
2023-01-27T10:00:42.914Z,5.67
2023-01-27T10:03:19.409Z,5.70
2023-01-27T10:06:01.216Z,6.50
2023-01-27T10:08:38.283Z,6.60
2023-01-27T10:11:12.913Z,5.20
2023-01-27T10:13:47.785Z,5.97
2023-01-27T10:16:23.254Z,5.90
2023-01-27T10:19:02.427Z,5.67
2023-01-27T10:21:36.669Z,5.27
2023-01-27T10:24:08.595Z,5.13
2023-01-27T10:26:40.815Z,4.83
2023-01-27T10:29:11.304Z,6.30
2023-01-27T10:31:43.635Z,6.00
2023-01-27T10:34:19.984Z,6.03
2023-01-27T10:36:49.781Z,6.37
2023-01-27T10:39:22.055Z,5.67
2023-01-27T10:41:57.233Z,5.90
2023-01-27T10:44:33.649Z,5.93
2023-01-27T10:47:04.855Z,5.33
2023-01-27T10:49:36.309Z,5.43
2023-01-27T10:52:07.021Z,6.07
2023-01-27T10:54:37.328Z,5.40
2023-01-27T10:57:07.799Z,6.13
2023-01-27T10:59:40.380Z,5.70
2023-01-27T11:02:15.881Z,5.73
2023-01-27T11:04:48.208Z,6.13
2023-01-27T11:07:17.829Z,5.60
2023-01-27T11:09:49.785Z,6.50
2023-01-27T11:12:17.838Z,5.67
2023-01-27T11:14:48.166Z,6.17
2023-01-27T11:17:18.953Z,5.53
2023-01-27T11:19:51.509Z,5.47
2023-01-27T11:22:22.086Z,5.50
2023-01-27T11:24:53.540Z,5.40
2023-01-27T11:27:26.364Z,5.03
2023-01-27T11:29:59.195Z,5.07
2023-01-27T11:32:35.445Z,5.03
2023-01-27T11:35:04.579Z,5.27
2023-01-27T11:37:33.782Z,6.10
2023-01-27T11:40:02.069Z,5.10
2023-01-27T11:42:31.768Z,6.60
2023-01-27T11:45:01.748Z,5.90
2023-01-27T11:47:31.379Z,5.80
2023-01-27T11:49:59.823Z,5.70
2023-01-27T11:52:29.355Z,5.03
2023-01-27T11:54:59.579Z,5.40
2023-01-27T11:57:29.589Z,5.20
2023-01-27T12:00:00.269Z,5.53
2023-01-27T12:02:32.255Z,5.50
2023-01-27T12:05:04.070Z,5.60
2023-01-27T12:07:39.010Z,5.30
2023-01-27T12:10:22.339Z,5.13
2023-01-27T12:12:50.321Z,5.03
2023-01-27T12:15:19.453Z,5.30
2023-01-27T12:17:50.189Z,4.40
2023-01-27T12:20:26.215Z,5.50
2023-01-27T12:22:55.174Z,4.87
2023-01-27T12:25:28.073Z,5.27
2023-01-27T12:27:58.194Z,5.13
2023-01-27T12:30:27.808Z,5.13
2023-01-27T12:32:57.906Z,5.23
2023-01-27T12:35:27.277Z,5.90
2023-01-27T12:37:59.805Z,5.50
2023-01-27T12:40:29.234Z,4.83
2023-01-27T12:43:12.411Z,5.27
2023-01-27T12:45:41.028Z,4.50
2023-01-27T12:48:18.647Z,5.17
2023-01-27T12:50:55.459Z,5.17
2023-01-27T12:53:27.098Z,5.27
2023-01-27T12:55:58.702Z,4.60
2023-01-27T12:58:36.481Z,4.83
2023-01-27T13:01:05.772Z,5.17
2023-01-27T13:03:38.644Z,6.03
2023-01-27T13:06:06.997Z,5.40
2023-01-27T13:08:35.387Z,4.60
2023-01-27T13:11:04.251Z,4.67
2023-01-27T13:13:32.598Z,4.70
2023-01-27T13:16:04.327Z,5.20
2023-01-27T13:18:38.559Z,5.07
2023-01-27T13:21:12.785Z,5.50
2023-01-27T13:23:41.618Z,5.10
2023-01-27T13:26:17.013Z,5.57
2023-01-27T13:28:52.865Z,5.10
2023-01-27T13:31:24.095Z,5.80
2023-01-27T13:33:56.936Z,5.67
2023-01-27T13:36:29.401Z,6.07
2023-01-27T13:39:00.824Z,5.30
2023-01-27T13:41:34.071Z,6.20
2023-01-27T13:44:04.790Z,5.27
2023-01-27T13:46:34.779Z,5.33
2023-01-27T13:49:06.334Z,5.83
2023-01-27T13:51:36.980Z,6.30
2023-01-27T13:54:06.927Z,6.13
2023-01-27T13:56:45.308Z,6.20
2023-01-27T13:59:21.275Z,5.87
2023-01-27T14:01:53.307Z,6.37
2023-01-27T14:04:31.568Z,5.87
2023-01-27T14:07:05.921Z,5.67
2023-01-27T14:09:43.359Z,5.77
2023-01-27T14:12:17.040Z,5.60
2023-01-27T14:14:58.122Z,5.33
2023-01-27T14:17:31.488Z,6.27
2023-01-27T14:20:06.487Z,6.30
2023-01-27T14:22:38.011Z,5.47
2023-01-27T14:25:09.452Z,4.83
2023-01-27T14:27:40.083Z,6.73
2023-01-27T14:30:11.396Z,5.17
2023-01-27T14:32:41.119Z,4.80
2023-01-27T14:35:24.177Z,5.97
2023-01-27T14:37:55.377Z,5.50
2023-01-27T14:40:25.209Z,5.77
2023-01-27T14:43:02.018Z,5.63
2023-01-27T14:45:32.000Z,5.57
2023-01-27T14:48:03.903Z,5.70
2023-01-27T14:50:36.012Z,5.70
2023-01-27T14:53:12.635Z,6.20
2023-01-27T14:55:45.308Z,6.10
2023-01-27T14:58:21.723Z,6.13
2023-01-27T15:00:54.564Z,5.43
2023-01-27T15:03:52.431Z,5.97
2023-01-27T15:06:25.808Z,5.37
2023-01-27T15:08:56.210Z,5.70
2023-01-27T15:11:40.305Z,5.57
2023-01-27T15:14:18.615Z,5.73
2023-01-27T15:16:54.020Z,5.57
2023-01-27T15:19:31.340Z,5.20
2023-01-27T15:22:12.101Z,5.97
2023-01-27T15:24:51.502Z,5.23
2023-01-27T15:27:21.146Z,5.60
2023-01-27T15:29:49.667Z,5.73
2023-01-27T15:32:28.795Z,5.70
2023-01-27T15:35:11.668Z,5.37
2023-01-27T15:37:55.888Z,5.53
2023-01-27T15:40:24.175Z,5.10
2023-01-27T15:42:53.275Z,5.20
2023-01-27T15:45:28.663Z,5.40
2023-01-27T15:48:00.315Z,5.67
2023-01-27T15:50:30.103Z,5.83
2023-01-27T15:53:03.026Z,5.47
2023-01-27T15:55:32.692Z,5.23
2023-01-27T15:58:06.019Z,5.13
2023-01-27T16:00:35.699Z,6.00
2023-01-27T16:03:06.066Z,5.77
2023-01-27T16:05:37.760Z,5.73
2023-01-27T16:08:17.283Z,6.33
2023-01-27T16:10:45.348Z,5.40
2023-01-27T16:13:21.578Z,5.37
2023-01-27T16:15:49.630Z,5.33
2023-01-27T16:18:26.011Z,5.67
2023-01-27T16:20:58.144Z,5.03
2023-01-27T16:23:41.932Z,5.10
2023-01-27T16:26:17.014Z,5.53
2023-01-27T16:28:45.724Z,5.20
2023-01-27T16:31:17.633Z,5.10
2023-01-27T16:33:46.560Z,4.83
2023-01-27T16:36:20.674Z,5.43
2023-01-27T16:38:50.814Z,5.93
2023-01-27T16:41:20.279Z,5.70
2023-01-27T16:43:52.002Z,5.30
2023-01-27T16:46:31.963Z,4.90
2023-01-27T16:49:00.161Z,5.77
2023-01-27T16:51:29.981Z,5.40
2023-01-27T16:54:00.245Z,5.47
2023-01-27T16:56:28.550Z,5.10
2023-01-27T16:58:58.315Z,5.07
2023-01-27T17:01:28.140Z,5.30
2023-01-27T17:04:04.813Z,4.70
2023-01-27T17:06:36.027Z,5.13
2023-01-27T17:09:20.050Z,5.27
2023-01-27T17:11:48.224Z,5.40
2023-01-27T17:14:29.863Z,5.00
2023-01-27T17:16:59.448Z,5.10
2023-01-27T17:19:30.142Z,5.63
2023-01-27T17:21:59.779Z,5.50
2023-01-27T17:24:31.021Z,5.37
2023-01-27T17:27:02.190Z,5.23
2023-01-27T17:29:33.567Z,5.20
2023-01-27T17:32:01.836Z,5.73
2023-01-27T17:34:29.900Z,5.77
2023-01-27T17:37:07.797Z,5.70
2023-01-27T17:39:39.121Z,5.40
2023-01-27T17:42:07.318Z,5.57
2023-01-27T17:44:35.658Z,5.20
2023-01-27T17:47:03.745Z,5.00
2023-01-27T17:49:32.105Z,5.30
2023-01-27T17:52:00.475Z,7.17
2023-01-27T17:54:30.676Z,5.37
2023-01-27T17:57:02.344Z,5.30
2023-01-27T17:59:30.595Z,4.97
2023-01-27T18:02:02.697Z,5.83
2023-01-27T18:04:32.247Z,5.30
2023-01-27T18:07:00.190Z,5.03
2023-01-27T18:09:28.660Z,5.40
2023-01-27T18:11:58.083Z,5.20
2023-01-27T18:14:29.906Z,6.07
2023-01-27T18:16:59.337Z,5.07
2023-01-27T18:19:27.301Z,5.60
2023-01-27T18:22:05.718Z,5.50
2023-01-27T18:24:33.975Z,5.43
2023-01-27T18:27:01.971Z,5.60
2023-01-27T18:29:35.046Z,5.77
2023-01-27T18:32:10.759Z,5.53
2023-01-27T18:34:46.669Z,5.60
2023-01-27T18:37:24.749Z,4.73
2023-01-27T18:39:52.691Z,5.10
2023-01-27T18:42:21.652Z,5.20
2023-01-27T18:44:51.857Z,5.00
2023-01-27T18:47:29.902Z,4.60
2023-01-27T18:50:02.496Z,5.20
2023-01-27T18:52:30.864Z,4.60
2023-01-27T18:55:01.800Z,5.80
2023-01-27T18:57:30.046Z,5.00
2023-01-27T18:59:59.458Z,5.10
2023-01-27T19:02:27.623Z,4.93
2023-01-27T19:04:55.599Z,5.47
2023-01-27T19:07:23.527Z,4.70
2023-01-27T19:09:51.473Z,5.43
2023-01-27T19:12:19.436Z,5.20
2023-01-27T19:14:48.945Z,5.23
2023-01-27T19:17:24.388Z,5.70
2023-01-27T19:19:52.350Z,5.83
2023-01-27T19:22:20.945Z,4.70
2023-01-27T19:24:50.639Z,5.67
2023-01-27T19:27:19.375Z,5.37
2023-01-27T19:29:47.318Z,5.30
2023-01-27T19:32:16.335Z,5.50
2023-01-27T19:34:45.773Z,4.17
2023-01-27T19:37:17.588Z,6.07
2023-01-27T19:39:46.064Z,6.03
2023-01-27T19:42:16.801Z,4.63
2023-01-27T19:44:44.720Z,5.27
2023-01-27T19:47:13.616Z,4.57
2023-01-27T19:49:43.804Z,4.57
2023-01-27T19:52:13.219Z,6.50
2023-01-27T19:54:42.567Z,5.97
2023-01-27T19:57:15.936Z,5.40
2023-01-27T19:59:46.020Z,5.10
2023-01-27T20:02:14.348Z,5.07
2023-01-27T20:04:42.509Z,5.60
2023-01-27T20:07:13.402Z,5.63
2023-01-27T20:09:41.512Z,5.23
2023-01-27T20:12:16.256Z,5.77
2023-01-27T20:14:46.501Z,6.07
2023-01-27T20:17:14.446Z,5.90
2023-01-27T20:19:42.745Z,6.53
2023-01-27T20:22:13.907Z,6.43
2023-01-27T20:24:44.214Z,6.60
2023-01-27T20:27:12.161Z,5.57
2023-01-27T20:29:40.078Z,6.67
2023-01-27T20:32:09.676Z,6.40
2023-01-27T20:34:38.719Z,6.20
2023-01-27T20:37:06.645Z,5.90
2023-01-27T20:39:36.058Z,6.97
2023-01-27T20:42:04.006Z,5.73
2023-01-27T20:44:31.976Z,6.03
2023-01-27T20:46:59.967Z,6.43
2023-01-27T20:49:27.883Z,6.37
2023-01-27T20:51:55.896Z,6.90
2023-01-27T20:54:23.858Z,7.30
2023-01-27T20:56:53.215Z,6.60
2023-01-27T20:59:21.223Z,6.97
2023-01-27T21:01:49.175Z,6.53
2023-01-27T21:04:17.151Z,6.63
2023-01-27T21:06:45.092Z,7.50
2023-01-27T21:09:13.040Z,6.37
2023-01-27T21:11:41.010Z,7.07
2023-01-27T21:14:11.014Z,7.10
2023-01-27T21:16:39.084Z,7.00
2023-01-27T21:19:07.107Z,7.03
2023-01-27T21:21:35.056Z,6.67
2023-01-27T21:24:03.165Z,6.53
2023-01-27T21:26:32.784Z,6.93
2023-01-27T21:29:00.742Z,6.53
2023-01-27T21:31:30.590Z,6.33
2023-01-27T21:34:00.058Z,7.33
2023-01-27T21:36:27.975Z,8.57
2023-01-27T21:38:57.068Z,6.77
2023-01-27T21:41:40.151Z,6.73
2023-01-27T21:44:30.179Z,6.50
2023-01-27T21:46:59.547Z,6.90
2023-01-27T21:49:27.614Z,7.50
2023-01-27T21:51:55.789Z,6.97
2023-01-27T21:54:23.774Z,6.80
2023-01-27T21:56:51.731Z,6.97
2023-01-27T21:59:19.734Z,6.47
2023-01-27T22:01:47.712Z,6.90
2023-01-27T22:04:18.000Z,6.73
2023-01-27T22:06:45.991Z,6.90
2023-01-27T22:09:14.189Z,7.37
2023-01-27T22:11:42.164Z,6.87
2023-01-27T22:14:10.081Z,7.73
2023-01-27T22:16:38.042Z,8.50
2023-01-27T22:19:06.544Z,7.40
2023-01-27T22:21:35.882Z,7.10
2023-01-27T22:24:03.918Z,7.00
2023-01-27T22:26:31.924Z,7.73
2023-01-27T22:28:59.880Z,7.37
2023-01-27T22:31:27.836Z,7.40
2023-01-27T22:33:55.788Z,6.50
2023-01-27T22:36:23.801Z,7.17
2023-01-27T22:38:53.206Z,7.87
2023-01-27T22:41:21.128Z,7.70
2023-01-27T22:43:50.852Z,7.30
2023-01-27T22:46:18.998Z,7.20
2023-01-27T22:48:48.352Z,7.53
2023-01-27T22:51:16.701Z,7.27
2023-01-27T22:53:44.657Z,7.50
2023-01-27T22:56:13.990Z,7.03
2023-01-27T22:58:42.087Z,7.87
2023-01-27T23:01:10.063Z,7.97
2023-01-27T23:03:38.000Z,7.43
2023-01-27T23:06:06.333Z,7.37
2023-01-27T23:08:34.547Z,7.53
2023-01-27T23:11:02.889Z,7.77
2023-01-27T23:13:32.699Z,7.23
2023-01-27T23:16:00.821Z,8.37
2023-01-27T23:18:28.924Z,7.57
2023-01-27T23:20:56.885Z,7.50
2023-01-27T23:23:24.845Z,7.73
2023-01-27T23:25:52.796Z,8.10
2023-01-27T23:28:21.475Z,7.33
2023-01-27T23:30:51.493Z,7.23
2023-01-27T23:33:20.497Z,8.03
2023-01-27T23:35:48.529Z,7.97
2023-01-27T23:38:31.434Z,7.83
2023-01-27T23:41:02.141Z,8.00
2023-01-27T23:43:31.127Z,7.27
2023-01-27T23:46:00.647Z,7.10
2023-01-27T23:48:28.680Z,6.93
2023-01-27T23:50:56.637Z,7.50
2023-01-27T23:53:24.590Z,7.23
2023-01-27T23:55:55.887Z,6.87
2023-01-27T23:58:23.861Z,8.80
